createdAt,value
2018-10-11T00:02:08.740Z,21.07
2018-10-11T00:04:37.373Z,20.30
2018-10-11T00:07:05.948Z,20.03
2018-10-11T00:09:34.532Z,20.03
2018-10-11T00:12:03.150Z,20.47
2018-10-11T00:14:38.897Z,20.03
2018-10-11T00:17:14.882Z,19.63
2018-10-11T00:19:50.673Z,20.40
2018-10-11T00:22:26.285Z,21.03
2018-10-11T00:25:02.224Z,20.67
2018-10-11T00:27:38.007Z,20.53
2018-10-11T00:30:14.127Z,19.47
2018-10-11T00:32:50.083Z,21.50
2018-10-11T00:35:26.817Z,20.40
2018-10-11T00:38:02.503Z,21.17
2018-10-11T00:40:39.945Z,21.23
2018-10-11T00:43:16.075Z,20.60
2018-10-11T00:45:44.841Z,20.97
2018-10-11T00:48:13.516Z,20.93
2018-10-11T00:50:42.111Z,20.80
2018-10-11T00:53:10.665Z,20.13
2018-10-11T00:55:39.225Z,20.97
2018-10-11T00:58:07.768Z,21.90
2018-10-11T01:00:36.311Z,22.20
2018-10-11T01:03:04.837Z,22.60
2018-10-11T01:05:33.518Z,22.77
2018-10-11T01:08:02.113Z,22.00
2018-10-11T01:10:30.662Z,21.50
2018-10-11T01:12:59.432Z,22.23
2018-10-11T01:15:28.073Z,22.40
2018-10-11T01:17:56.658Z,21.93
2018-10-11T01:20:25.170Z,23.73
2018-10-11T01:22:54.257Z,21.83
2018-10-11T01:25:22.806Z,22.67
2018-10-11T01:27:52.039Z,22.87
2018-10-11T01:30:20.624Z,23.47
2018-10-11T01:32:49.272Z,22.60
2018-10-11T01:35:17.959Z,23.20
2018-10-11T01:37:46.503Z,24.63
2018-10-11T01:40:15.420Z,24.07
2018-10-11T01:42:43.982Z,22.63
2018-10-11T01:45:12.579Z,24.47
2018-10-11T01:47:41.323Z,24.27
2018-10-11T01:50:09.934Z,24.00
2018-10-11T01:52:38.506Z,25.47
2018-10-11T01:55:07.146Z,23.47
2018-10-11T01:57:35.749Z,24.70
2018-10-11T02:00:04.330Z,25.03
2018-10-11T02:02:32.849Z,24.00
2018-10-11T02:05:01.446Z,24.20
2018-10-11T02:07:30.012Z,24.87
2018-10-11T02:09:58.610Z,24.83
2018-10-11T02:12:27.176Z,24.57
2018-10-11T02:14:55.739Z,25.17
2018-10-11T02:17:24.276Z,26.90
2018-10-11T02:19:52.893Z,26.37
2018-10-11T02:22:21.497Z,25.93
2018-10-11T02:24:50.056Z,24.80
2018-10-11T02:27:18.619Z,25.60
2018-10-11T02:29:47.216Z,27.00
2018-10-11T02:32:15.803Z,25.90
2018-10-11T02:34:44.375Z,24.40
2018-10-11T02:37:13.000Z,25.67
2018-10-11T02:39:41.644Z,26.03
2018-10-11T02:42:10.350Z,25.60
2018-10-11T02:44:38.868Z,25.57
2018-10-11T02:47:07.437Z,26.83
2018-10-11T02:49:36.870Z,26.30
2018-10-11T02:52:05.507Z,26.90
2018-10-11T02:54:34.121Z,25.83
2018-10-11T02:57:04.713Z,25.00
2018-10-11T02:59:35.694Z,26.80
2018-10-11T03:02:09.006Z,25.70
2018-10-11T03:04:37.832Z,25.30
2018-10-11T03:07:08.193Z,26.13
2018-10-11T03:09:36.792Z,26.30
2018-10-11T03:12:05.427Z,26.47
2018-10-11T03:14:34.115Z,26.80
2018-10-11T03:17:02.679Z,26.40
2018-10-11T03:19:31.249Z,25.53
2018-10-11T03:21:59.862Z,26.53
2018-10-11T03:24:28.479Z,26.60
2018-10-11T03:26:59.324Z,25.97
2018-10-11T03:29:28.970Z,26.50
2018-10-11T03:31:57.599Z,26.83
2018-10-11T03:34:27.151Z,27.27
2018-10-11T03:36:57.197Z,27.13
2018-10-11T03:39:26.344Z,27.23
2018-10-11T03:41:55.361Z,28.07
2018-10-11T03:44:23.980Z,27.27
2018-10-11T03:46:52.633Z,25.80
2018-10-11T03:49:21.311Z,26.60
2018-10-11T03:51:49.894Z,26.23
2018-10-11T03:54:18.465Z,27.63
2018-10-11T03:56:47.162Z,27.80
2018-10-11T03:59:15.812Z,27.17
2018-10-11T04:01:44.466Z,26.63
2018-10-11T04:04:13.047Z,27.73
2018-10-11T04:06:41.590Z,26.97
2018-10-11T04:09:10.150Z,27.13
2018-10-11T04:11:38.675Z,28.53
2018-10-11T04:14:07.386Z,27.97
2018-10-11T04:16:36.031Z,28.47
2018-10-11T04:19:04.737Z,28.63
2018-10-11T04:21:33.312Z,27.93
2018-10-11T04:24:01.921Z,25.40
2018-10-11T04:26:30.502Z,27.27
2018-10-11T04:28:59.070Z,26.63
2018-10-11T04:31:27.670Z,28.20
2018-10-11T04:33:56.310Z,26.73
2018-10-11T04:36:24.950Z,26.80
2018-10-11T04:38:53.561Z,26.67
2018-10-11T04:41:22.128Z,26.20
2018-10-11T04:43:50.723Z,26.80
2018-10-11T04:46:19.298Z,26.13
2018-10-11T04:48:47.939Z,27.73
2018-10-11T04:51:16.548Z,26.83
2018-10-11T04:53:47.522Z,26.93
2018-10-11T04:56:16.127Z,25.53
2018-10-11T04:58:44.677Z,28.20
2018-10-11T05:01:13.330Z,28.20
2018-10-11T05:03:41.922Z,26.90
2018-10-11T05:06:10.505Z,25.70
2018-10-11T05:08:39.069Z,25.57
2018-10-11T05:11:07.654Z,26.50
2018-10-11T05:13:40.348Z,25.20
2018-10-11T05:16:08.982Z,24.10
2018-10-11T05:18:39.970Z,24.57
2018-10-11T05:21:08.509Z,24.37
2018-10-11T05:23:37.167Z,21.23
2018-10-11T05:26:05.888Z,21.70
2018-10-11T05:28:34.449Z,22.37
2018-10-11T05:31:03.016Z,21.80
2018-10-11T05:33:31.681Z,19.63
2018-10-11T05:36:00.338Z,19.37
2018-10-11T05:38:29.044Z,19.47
2018-10-11T05:40:57.670Z,18.13
2018-10-11T05:43:26.701Z,17.90
2018-10-11T05:45:57.421Z,15.97
2018-10-11T05:48:27.204Z,14.27
2018-10-11T05:50:56.252Z,15.10
2018-10-11T05:53:25.190Z,12.93
2018-10-11T05:55:53.784Z,12.20
2018-10-11T05:58:22.378Z,11.93
2018-10-11T06:00:51.096Z,12.53
2018-10-11T06:03:19.700Z,11.07
2018-10-11T06:05:48.277Z,11.17
2018-10-11T06:08:16.901Z,11.97
2018-10-11T06:10:45.573Z,12.60
2018-10-11T06:13:14.615Z,11.07
2018-10-11T06:15:43.455Z,10.57
2018-10-11T06:18:12.752Z,12.10
2018-10-11T06:20:41.936Z,11.33
2018-10-11T06:23:10.687Z,11.13
2018-10-11T06:25:39.300Z,11.07
2018-10-11T06:28:08.520Z,10.17
2018-10-11T06:30:37.793Z,10.00
2018-10-11T06:33:06.540Z,8.57
2018-10-11T06:35:35.599Z,8.17
2018-10-11T06:38:04.595Z,8.47
2018-10-11T06:40:34.478Z,8.33
2018-10-11T06:43:03.141Z,8.90
2018-10-11T06:45:32.025Z,8.77
2018-10-11T06:48:02.603Z,8.13
2018-10-11T06:50:31.547Z,8.97
2018-10-11T06:53:00.522Z,8.63
2018-10-11T06:55:29.171Z,9.57
2018-10-11T06:57:57.887Z,9.47
2018-10-11T07:00:26.506Z,8.60
2018-10-11T07:02:55.193Z,9.40
2018-10-11T07:05:23.935Z,10.17
2018-10-11T07:07:53.636Z,10.23
2018-10-11T07:10:22.804Z,9.53
2018-10-11T07:12:51.436Z,10.03
2018-10-11T07:15:20.149Z,9.73
2018-10-11T07:17:48.745Z,9.53
2018-10-11T07:20:17.459Z,9.57
2018-10-11T07:22:46.195Z,10.00
2018-10-11T07:25:14.861Z,10.10
2018-10-11T07:27:43.684Z,8.87
2018-10-11T07:30:12.413Z,9.83
2018-10-11T07:32:41.123Z,9.40
2018-10-11T07:35:09.910Z,9.33
2018-10-11T07:37:38.418Z,9.97
2018-10-11T07:40:07.467Z,10.47
2018-10-11T07:42:36.407Z,9.97
2018-10-11T07:45:05.131Z,9.20
2018-10-11T07:47:33.897Z,10.33
2018-10-11T07:50:02.618Z,10.47
2018-10-11T07:52:31.622Z,10.17
2018-10-11T07:55:00.304Z,10.13
2018-10-11T07:57:29.005Z,10.17
2018-10-11T07:59:57.774Z,9.33
2018-10-11T08:02:26.390Z,10.27
2018-10-11T08:04:56.213Z,9.93
2018-10-11T08:07:24.860Z,9.70
2018-10-11T08:09:54.132Z,9.83
2018-10-11T08:12:22.744Z,9.73
2018-10-11T08:14:52.060Z,9.30
2018-10-11T08:17:20.984Z,9.43
2018-10-11T08:19:49.502Z,10.17
2018-10-11T08:22:18.192Z,10.70
2018-10-11T08:24:47.064Z,11.63
2018-10-11T08:27:15.633Z,12.50
2018-10-11T08:29:45.103Z,14.57
2018-10-11T08:32:13.915Z,15.57
2018-10-11T08:34:42.614Z,13.80
2018-10-11T08:37:11.292Z,14.33
2018-10-11T08:39:39.900Z,13.83
2018-10-11T08:42:08.669Z,13.43
2018-10-11T08:44:37.390Z,14.13
2018-10-11T08:47:06.053Z,12.73
2018-10-11T08:49:34.853Z,12.77
2018-10-11T08:52:03.587Z,12.37
2018-10-11T08:54:37.649Z,11.97
2018-10-11T08:57:06.499Z,12.50
2018-10-11T08:59:35.255Z,12.03
2018-10-11T09:02:04.036Z,10.80
2018-10-11T09:04:32.611Z,11.27
2018-10-11T09:07:01.265Z,10.23
2018-10-11T09:09:29.884Z,10.00
2018-10-11T09:11:58.623Z,9.50
2018-10-11T09:14:27.191Z,9.00
2018-10-11T09:16:55.948Z,7.97
2018-10-11T09:19:24.576Z,8.20
2018-10-11T09:21:53.820Z,7.80
2018-10-11T09:24:22.495Z,8.43
2018-10-11T09:26:51.199Z,7.93
2018-10-11T09:29:19.929Z,8.97
2018-10-11T09:31:48.596Z,8.67
2018-10-11T09:34:17.374Z,8.50
2018-10-11T09:36:46.001Z,8.17
2018-10-11T09:39:14.720Z,8.57
2018-10-11T09:41:43.702Z,8.60
2018-10-11T09:44:13.841Z,7.93
2018-10-11T09:46:42.486Z,8.53
2018-10-11T09:49:11.216Z,7.70
2018-10-11T09:51:39.939Z,8.10
2018-10-11T09:54:08.539Z,8.13
2018-10-11T09:57:13.200Z,7.80
2018-10-11T09:59:42.064Z,6.63
2018-10-11T10:02:11.693Z,6.90
2018-10-11T10:04:44.497Z,6.63
2018-10-11T10:07:13.425Z,6.83
2018-10-11T10:09:43.003Z,6.33
2018-10-11T10:12:12.139Z,5.93
2018-10-11T10:14:41.473Z,5.53
2018-10-11T10:17:10.208Z,5.03
2018-10-11T10:19:38.950Z,5.00
2018-10-11T10:22:07.686Z,4.87
2018-10-11T10:24:36.727Z,4.00
2018-10-11T10:27:05.250Z,4.47
2018-10-11T10:29:34.041Z,4.20
2018-10-11T10:32:03.137Z,3.90
2018-10-11T10:34:31.824Z,3.20
2018-10-11T10:37:00.602Z,3.10
2018-10-11T10:39:29.413Z,3.03
2018-10-11T10:41:58.328Z,3.40
2018-10-11T10:44:26.882Z,3.80
2018-10-11T10:46:55.535Z,2.80
2018-10-11T10:49:24.118Z,2.83
2018-10-11T10:51:52.823Z,3.60
2018-10-11T10:54:26.651Z,3.40
2018-10-11T10:56:55.761Z,3.60
2018-10-11T10:59:24.496Z,4.07
2018-10-11T11:01:53.486Z,4.10
2018-10-11T11:04:22.342Z,4.20
2018-10-11T11:06:50.993Z,4.40
2018-10-11T11:09:19.733Z,5.30
2018-10-11T11:11:49.292Z,5.03
2018-10-11T11:14:18.269Z,4.50
2018-10-11T11:16:47.149Z,4.47
2018-10-11T11:19:16.646Z,6.43
2018-10-11T11:21:45.372Z,4.37
2018-10-11T11:24:14.078Z,4.00
2018-10-11T11:26:42.757Z,4.10
2018-10-11T11:29:11.428Z,3.90
2018-10-11T11:31:40.090Z,4.13
2018-10-11T11:34:08.693Z,4.40
2018-10-11T11:36:38.018Z,4.17
2018-10-11T11:39:09.171Z,4.10
2018-10-11T11:41:37.910Z,3.63
2018-10-11T11:44:06.609Z,3.80
2018-10-11T11:46:35.291Z,3.67
2018-10-11T11:49:03.981Z,3.63
2018-10-11T11:51:32.630Z,4.30
2018-10-11T11:54:01.329Z,3.30
2018-10-11T11:56:30.034Z,3.20
2018-10-11T11:58:58.750Z,3.63
2018-10-11T12:01:27.542Z,4.27
2018-10-11T12:03:56.285Z,3.00
2018-10-11T12:06:25.686Z,4.07
2018-10-11T12:08:54.288Z,4.13
2018-10-11T12:11:23.369Z,3.87
2018-10-11T12:13:51.943Z,4.27
2018-10-11T12:16:20.580Z,3.50
2018-10-11T12:18:49.365Z,3.67
2018-10-11T12:21:18.002Z,3.57
2018-10-11T12:23:46.801Z,4.43
2018-10-11T12:26:15.541Z,4.10
2018-10-11T12:28:45.104Z,2.70
2018-10-11T12:31:13.758Z,5.50
2018-10-11T12:33:42.416Z,3.63
2018-10-11T12:36:10.994Z,3.60
2018-10-11T12:38:39.673Z,5.40
2018-10-11T12:41:08.233Z,2.20
2018-10-11T12:43:37.018Z,2.83
2018-10-11T12:46:06.753Z,2.90
2018-10-11T12:48:35.492Z,2.90
2018-10-11T12:51:04.311Z,2.50
2018-10-11T12:53:32.973Z,2.30
2018-10-11T12:56:02.286Z,2.60
2018-10-11T12:58:32.011Z,2.50
2018-10-11T13:01:00.751Z,2.60
2018-10-11T13:03:29.616Z,2.47
2018-10-11T13:05:58.181Z,2.50
2018-10-11T13:08:26.844Z,2.40
2018-10-11T13:10:55.568Z,2.90
2018-10-11T13:13:24.237Z,2.73
2018-10-11T13:15:53.030Z,2.40
2018-10-11T13:18:21.594Z,2.70
2018-10-11T13:20:50.393Z,2.50
2018-10-11T13:23:19.215Z,2.30
2018-10-11T13:25:47.959Z,2.60
2018-10-11T13:28:16.667Z,2.40
2018-10-11T13:30:45.356Z,2.17
2018-10-11T13:33:14.844Z,2.40
2018-10-11T13:35:43.663Z,2.30
2018-10-11T13:38:12.322Z,1.97
2018-10-11T13:40:41.074Z,2.10
2018-10-11T13:43:09.574Z,2.00
2018-10-11T13:45:38.160Z,1.90
2018-10-11T13:48:07.022Z,1.77
2018-10-11T13:50:35.826Z,2.10
2018-10-11T13:53:04.684Z,2.10
2018-10-11T13:55:33.455Z,1.70
2018-10-11T13:58:02.857Z,2.10
2018-10-11T14:00:31.692Z,2.03
2018-10-11T14:03:00.473Z,2.10
2018-10-11T14:05:29.269Z,2.00
2018-10-11T14:07:57.999Z,2.30
2018-10-11T14:10:26.807Z,2.00
2018-10-11T14:12:55.624Z,1.80
2018-10-11T14:15:24.705Z,2.23
2018-10-11T14:17:53.470Z,2.30
2018-10-11T14:20:23.012Z,2.07
2018-10-11T14:22:51.695Z,2.37
2018-10-11T14:25:20.413Z,2.23
2018-10-11T14:27:49.122Z,2.10
2018-10-11T14:30:19.365Z,2.57
2018-10-11T14:32:48.145Z,2.50
2018-10-11T14:35:16.746Z,2.60
2018-10-11T14:37:45.409Z,2.60
2018-10-11T14:40:14.255Z,2.40
2018-10-11T14:42:47.335Z,2.63
2018-10-11T14:45:16.224Z,2.57
2018-10-11T14:47:45.683Z,2.63
2018-10-11T14:50:14.523Z,3.20
2018-10-11T14:52:43.317Z,2.63
2018-10-11T14:55:12.579Z,2.80
2018-10-11T14:57:41.313Z,2.53
2018-10-11T15:00:10.189Z,2.80
2018-10-11T15:02:39.027Z,2.63
2018-10-11T15:05:07.719Z,2.50
2018-10-11T15:07:36.763Z,3.00
2018-10-11T15:10:05.708Z,3.07
2018-10-11T15:12:34.873Z,2.43
2018-10-11T15:15:03.673Z,2.67
2018-10-11T15:17:32.893Z,2.40
2018-10-11T15:20:01.786Z,2.60
2018-10-11T15:22:30.705Z,2.53
2018-10-11T15:25:00.199Z,2.20
2018-10-11T15:27:29.040Z,2.10
2018-10-11T15:29:57.792Z,2.40
2018-10-11T15:32:26.394Z,2.20
2018-10-11T15:34:55.210Z,2.00
2018-10-11T15:37:23.910Z,2.00
2018-10-11T15:39:52.686Z,2.20
2018-10-11T15:42:21.955Z,2.20
2018-10-11T15:44:51.423Z,1.87
2018-10-11T15:47:20.171Z,2.00
2018-10-11T15:49:48.900Z,2.23
2018-10-11T15:52:17.609Z,2.13
2018-10-11T15:54:46.878Z,2.50
2018-10-11T15:57:15.524Z,2.23
2018-10-11T15:59:44.178Z,2.17
2018-10-11T16:02:13.382Z,2.20
2018-10-11T16:04:42.398Z,2.33
2018-10-11T16:07:10.982Z,2.13
2018-10-11T16:09:39.665Z,2.20
2018-10-11T16:12:08.327Z,2.40
2018-10-11T16:14:37.022Z,2.30
2018-10-11T16:17:07.591Z,2.30
2018-10-11T16:19:40.451Z,1.80
2018-10-11T16:22:10.396Z,2.00
2018-10-11T16:24:39.215Z,2.13
2018-10-11T16:27:07.977Z,2.30
2018-10-11T16:29:37.950Z,2.10
2018-10-11T16:32:06.643Z,1.87
2018-10-11T16:34:36.030Z,2.30
2018-10-11T16:37:08.635Z,2.20
2018-10-11T16:39:40.667Z,2.20
2018-10-11T16:42:13.702Z,2.37
2018-10-11T16:44:43.228Z,2.37
2018-10-11T16:47:11.892Z,2.53
2018-10-11T16:49:40.553Z,2.40
2018-10-11T16:52:09.831Z,2.33
2018-10-11T16:54:42.078Z,2.30
2018-10-11T16:57:11.937Z,2.50
2018-10-11T16:59:40.495Z,2.27
2018-10-11T17:02:09.179Z,2.50
2018-10-11T17:04:37.990Z,2.53
2018-10-11T17:07:06.677Z,2.93
2018-10-11T17:09:35.495Z,2.40
2018-10-11T17:12:04.203Z,2.93
2018-10-11T17:14:33.029Z,2.77
2018-10-11T17:17:01.647Z,3.40
2018-10-11T17:19:30.375Z,3.20
2018-10-11T17:21:59.580Z,3.13
2018-10-11T17:24:34.868Z,2.73
2018-10-11T17:27:04.210Z,3.00
2018-10-11T17:29:33.196Z,3.70
2018-10-11T17:32:02.335Z,3.77
2018-10-11T17:34:31.061Z,3.40
2018-10-11T17:36:59.863Z,3.83
2018-10-11T17:39:28.474Z,3.10
2018-10-11T17:41:58.283Z,3.47
2018-10-11T17:44:26.877Z,3.33
2018-10-11T17:46:58.870Z,3.23
2018-10-11T17:49:28.873Z,3.33
2018-10-11T17:51:57.558Z,3.70
2018-10-11T17:54:26.796Z,3.60
2018-10-11T17:56:55.774Z,3.93
2018-10-11T17:59:24.517Z,3.70
2018-10-11T18:01:54.030Z,3.67
2018-10-11T18:04:22.623Z,3.60
2018-10-11T18:06:51.441Z,3.53
2018-10-11T18:09:21.560Z,3.70
2018-10-11T18:11:50.233Z,3.67
2018-10-11T18:14:23.735Z,3.80
2018-10-11T18:16:52.604Z,3.83
2018-10-11T18:19:22.428Z,3.83
2018-10-11T18:21:51.040Z,3.93
2018-10-11T18:24:19.742Z,3.90
2018-10-11T18:26:48.367Z,3.80
2018-10-11T18:29:17.369Z,3.53
2018-10-11T18:31:46.429Z,3.50
2018-10-11T18:34:16.652Z,3.87
2018-10-11T18:36:45.305Z,4.13
2018-10-11T18:39:16.772Z,3.90
2018-10-11T18:41:45.533Z,3.60
2018-10-11T18:44:14.212Z,4.20
2018-10-11T18:46:44.173Z,4.43
2018-10-11T18:49:12.796Z,4.20
2018-10-11T18:51:43.618Z,4.37
2018-10-11T18:54:12.488Z,4.00
2018-10-11T18:56:43.211Z,4.40
2018-10-11T18:59:16.466Z,4.20
2018-10-11T19:01:45.101Z,4.20
2018-10-11T19:04:13.688Z,3.53
2018-10-11T19:06:43.136Z,4.43
2018-10-11T19:09:11.853Z,4.30
2018-10-11T19:11:41.626Z,4.30
2018-10-11T19:14:10.392Z,4.70
2018-10-11T19:16:40.518Z,5.17
2018-10-11T19:19:09.701Z,5.07
2018-10-11T19:21:49.223Z,5.17
2018-10-11T19:24:17.945Z,5.00
2018-10-11T19:26:46.746Z,5.93
2018-10-11T19:29:15.559Z,5.53
2018-10-11T19:31:44.261Z,5.23
2018-10-11T19:34:13.097Z,5.07
2018-10-11T19:36:41.915Z,4.90
2018-10-11T19:39:12.229Z,5.13
2018-10-11T19:41:41.038Z,5.33
2018-10-11T19:44:10.157Z,5.00
2018-10-11T19:46:38.838Z,4.87
2018-10-11T19:49:07.780Z,4.70
2018-10-11T19:51:36.486Z,4.90
2018-10-11T19:54:05.211Z,5.40
2018-10-11T19:56:33.923Z,4.50
2018-10-11T19:59:02.760Z,5.03
2018-10-11T20:01:31.559Z,5.30
2018-10-11T20:04:01.297Z,4.40
2018-10-11T20:06:29.987Z,4.17
2018-10-11T20:08:58.601Z,4.53
2018-10-11T20:11:27.252Z,4.70
2018-10-11T20:13:56.048Z,4.70
2018-10-11T20:16:24.911Z,4.23
2018-10-11T20:18:54.341Z,4.37
2018-10-11T20:21:23.177Z,4.37
2018-10-11T20:23:51.917Z,4.53
2018-10-11T20:26:20.480Z,4.90
2018-10-11T20:28:49.288Z,4.80
2018-10-11T20:31:18.243Z,4.53
2018-10-11T20:33:46.889Z,4.70
2018-10-11T20:36:15.542Z,4.77
2018-10-11T20:38:44.304Z,5.00
2018-10-11T20:41:12.966Z,4.70
2018-10-11T20:43:41.599Z,4.57
2018-10-11T20:46:10.909Z,5.00
2018-10-11T20:48:40.217Z,5.53
2018-10-11T20:51:09.091Z,4.70
2018-10-11T20:53:37.767Z,5.20
2018-10-11T20:56:06.749Z,5.37
2018-10-11T20:58:35.446Z,5.00
2018-10-11T21:01:04.217Z,4.40
2018-10-11T21:03:32.908Z,4.37
2018-10-11T21:06:01.509Z,4.47
2018-10-11T21:08:30.107Z,4.37
2018-10-11T21:10:58.668Z,4.70
2018-10-11T21:13:27.682Z,4.37
2018-10-11T21:15:56.283Z,4.83
2018-10-11T21:18:27.370Z,4.37
2018-10-11T21:20:56.038Z,4.50
2018-10-11T21:23:24.735Z,4.20
2018-10-11T21:25:53.461Z,3.47
2018-10-11T21:28:22.354Z,4.37
2018-10-11T21:30:51.505Z,4.37
2018-10-11T21:33:20.599Z,3.70
2018-10-11T21:35:49.289Z,4.30
2018-10-11T21:38:17.927Z,4.30
2018-10-11T21:40:46.814Z,4.53
2018-10-11T21:43:15.496Z,4.37
2018-10-11T21:45:44.968Z,4.30
2018-10-11T21:48:13.631Z,4.40
2018-10-11T21:50:42.271Z,4.50
2018-10-11T21:53:10.826Z,4.20
2018-10-11T21:55:39.443Z,4.77
2018-10-11T21:58:08.236Z,4.40
2018-10-11T22:00:41.953Z,3.90
2018-10-11T22:03:10.791Z,4.10
2018-10-11T22:05:39.381Z,3.93
2018-10-11T22:08:08.110Z,4.37
2018-10-11T22:10:36.758Z,5.67
2018-10-11T22:13:05.396Z,5.60
2018-10-11T22:15:33.955Z,5.33
2018-10-11T22:18:03.201Z,4.80
2018-10-11T22:20:31.814Z,5.17
2018-10-11T22:23:00.492Z,5.37
2018-10-11T22:25:30.317Z,5.70
2018-10-11T22:27:59.249Z,5.80
2018-10-11T22:30:28.033Z,5.53
2018-10-11T22:32:56.729Z,5.97
2018-10-11T22:35:25.425Z,6.20
2018-10-11T22:37:58.473Z,5.90
2018-10-11T22:40:27.864Z,6.27
2018-10-11T22:42:57.282Z,7.00
2018-10-11T22:45:26.863Z,7.00
2018-10-11T22:47:56.177Z,7.70
2018-10-11T22:50:26.200Z,7.37
2018-10-11T22:52:55.244Z,7.20
2018-10-11T22:55:24.217Z,6.80
2018-10-11T22:57:52.926Z,7.33
2018-10-11T23:00:22.700Z,6.43
2018-10-11T23:02:51.988Z,6.83
2018-10-11T23:05:20.665Z,7.70
2018-10-11T23:07:49.465Z,8.57
2018-10-11T23:10:18.092Z,7.80
2018-10-11T23:12:46.695Z,8.90
2018-10-11T23:15:16.146Z,9.53
2018-10-11T23:17:44.683Z,8.30
2018-10-11T23:20:13.261Z,7.40
2018-10-11T23:22:42.356Z,5.60
2018-10-11T23:25:11.554Z,6.63
2018-10-11T23:27:41.144Z,6.37
2018-10-11T23:30:10.593Z,7.20
2018-10-11T23:32:39.932Z,6.97
2018-10-11T23:35:08.893Z,7.67
2018-10-11T23:37:37.887Z,7.17
2018-10-11T23:40:07.293Z,6.33
2018-10-11T23:42:36.289Z,6.73
2018-10-11T23:45:05.035Z,7.03
2018-10-11T23:47:33.732Z,6.50
2018-10-11T23:50:02.309Z,7.23
2018-10-11T23:52:30.987Z,6.83
2018-10-11T23:54:59.588Z,6.30
2018-10-11T23:57:28.169Z,7.20
2018-10-11T23:59:56.770Z,6.33
